createdAt,value
2019-01-19T00:04:29.088Z,83.04
2019-01-19T00:10:04.681Z,82.47
2019-01-19T00:15:44.607Z,82.73
2019-01-19T00:21:18.833Z,82.61
2019-01-19T00:26:55.162Z,82.53
2019-01-19T00:32:23.199Z,83.32
2019-01-19T00:37:46.963Z,83.04
2019-01-19T00:43:10.134Z,82.83
2019-01-19T00:48:48.106Z,82.77
2019-01-19T00:54:08.273Z,83.41
2019-01-19T00:59:37.700Z,83.25
2019-01-19T01:05:04.621Z,83.46
2019-01-19T01:10:50.601Z,83.52
2019-01-19T01:16:25.981Z,83.26
2019-01-19T01:21:48.305Z,83.13
2019-01-19T01:27:15.567Z,83.23
2019-01-19T01:33:04.390Z,83.02
2019-01-19T01:38:47.153Z,82.98
2019-01-19T01:44:20.225Z,83.34
2019-01-19T01:49:39.830Z,83.32
2019-01-19T01:55:10.833Z,83.36
2019-01-19T02:00:32.183Z,83.07
2019-01-19T02:05:57.963Z,83.40
2019-01-19T02:11:43.853Z,83.78
2019-01-19T02:17:19.964Z,83.86
2019-01-19T02:22:56.531Z,83.54
2019-01-19T02:28:23.801Z,83.28
2019-01-19T02:34:00.425Z,83.02
2019-01-19T02:39:40.088Z,83.32
2019-01-19T02:45:14.016Z,82.79
2019-01-19T02:50:38.246Z,82.97
2019-01-19T02:56:14.876Z,83.07
2019-01-19T03:02:04.088Z,82.90
2019-01-19T03:07:39.882Z,83.12
2019-01-19T03:13:11.197Z,83.35
2019-01-19T03:18:33.760Z,83.49
2019-01-19T03:24:02.905Z,83.29
2019-01-19T03:29:27.036Z,83.54
2019-01-19T03:34:48.614Z,83.14
2019-01-19T03:40:19.396Z,82.87
2019-01-19T03:45:55.803Z,82.62
2019-01-19T03:51:19.511Z,82.72
2019-01-19T03:56:56.926Z,82.54
2019-01-19T04:02:18.958Z,82.63
2019-01-19T04:07:58.708Z,83.31
2019-01-19T04:13:33.469Z,83.50
2019-01-19T04:19:13.399Z,83.18
2019-01-19T04:24:38.909Z,83.15
2019-01-19T04:29:57.323Z,82.88
2019-01-19T04:35:14.515Z,82.78
2019-01-19T04:40:31.587Z,83.00
2019-01-19T04:45:49.236Z,82.53
2019-01-19T04:51:06.467Z,82.81
2019-01-19T04:56:23.943Z,82.68
2019-01-19T05:01:41.669Z,82.70
2019-01-19T05:06:59.115Z,82.48
2019-01-19T05:12:16.382Z,82.70
2019-01-19T05:17:33.559Z,82.31
2019-01-19T05:22:50.935Z,82.01
2019-01-19T05:28:08.489Z,81.65
2019-01-19T05:33:26.125Z,81.56
2019-01-19T05:38:43.773Z,81.51
2019-01-19T05:44:01.750Z,81.62
2019-01-19T05:49:18.951Z,81.55
2019-01-19T05:54:36.416Z,81.34
2019-01-19T05:59:54.191Z,81.40
2019-01-19T06:05:12.725Z,81.36
2019-01-19T06:10:29.794Z,81.17
2019-01-19T06:15:47.588Z,81.04
2019-01-19T06:21:06.051Z,81.38
2019-01-19T06:26:23.474Z,80.59
2019-01-19T06:31:40.891Z,80.85
2019-01-19T06:36:58.053Z,81.03
2019-01-19T06:42:15.806Z,81.21
2019-01-19T06:47:34.267Z,81.66
2019-01-19T06:52:51.234Z,81.52
2019-01-19T06:58:08.608Z,81.41
2019-01-19T07:03:26.281Z,81.22
2019-01-19T07:08:46.654Z,81.03
2019-01-19T07:14:04.473Z,81.13
2019-01-19T07:19:22.978Z,81.26
2019-01-19T07:24:40.568Z,80.84
2019-01-19T07:29:58.544Z,80.78
2019-01-19T07:35:15.975Z,80.63
2019-01-19T07:40:33.013Z,81.42
2019-01-19T07:45:50.524Z,81.00
2019-01-19T07:51:08.437Z,80.79
2019-01-19T07:56:26.379Z,79.87
2019-01-19T08:01:43.708Z,79.96
2019-01-19T08:07:01.340Z,79.42
2019-01-19T08:12:18.364Z,79.44
2019-01-19T08:17:35.514Z,80.01
2019-01-19T08:22:53.437Z,79.47
2019-01-19T08:28:11.220Z,79.72
2019-01-19T08:33:28.663Z,78.52
2019-01-19T08:38:45.685Z,78.74
2019-01-19T08:44:05.926Z,77.84
2019-01-19T08:49:23.033Z,76.96
2019-01-19T08:54:40.209Z,76.92
2019-01-19T08:59:57.564Z,77.09
2019-01-19T09:05:15.216Z,76.18
2019-01-19T09:10:33.235Z,76.75
2019-01-19T09:15:51.474Z,77.12
2019-01-19T09:21:08.935Z,76.32
2019-01-19T09:26:27.182Z,75.10
2019-01-19T09:31:44.851Z,74.33
2019-01-19T09:37:02.668Z,74.29
2019-01-19T09:42:20.518Z,72.46
2019-01-19T09:47:38.095Z,72.49
2019-01-19T09:52:56.598Z,73.22
2019-01-19T09:58:14.706Z,71.06
2019-01-19T10:03:32.266Z,70.83
2019-01-19T10:08:52.720Z,69.87
2019-01-19T10:14:10.403Z,68.87
2019-01-19T10:19:27.488Z,67.66
2019-01-19T10:24:44.892Z,69.39
2019-01-19T10:30:02.258Z,68.96
2019-01-19T10:35:20.284Z,65.99
2019-01-19T10:40:38.119Z,65.82
2019-01-19T10:45:56.314Z,64.84
2019-01-19T10:51:13.791Z,64.59
2019-01-19T10:56:30.979Z,61.83
2019-01-19T11:01:49.006Z,61.37
2019-01-19T11:07:06.327Z,60.90
2019-01-19T11:12:23.787Z,59.42
2019-01-19T11:17:41.693Z,60.45
2019-01-19T11:22:59.621Z,59.71
2019-01-19T11:28:17.624Z,60.10
2019-01-19T11:33:34.865Z,60.11
2019-01-19T11:38:52.084Z,61.78
2019-01-19T11:44:09.446Z,61.25
2019-01-19T11:49:27.465Z,61.80
2019-01-19T11:54:45.325Z,61.55
2019-01-19T12:00:03.143Z,60.50
2019-01-19T12:05:20.891Z,61.93
2019-01-19T12:10:38.171Z,63.20
2019-01-19T12:15:55.677Z,61.30
2019-01-19T12:21:12.947Z,61.89
2019-01-19T12:26:30.531Z,62.34
2019-01-19T12:31:47.893Z,59.93
2019-01-19T12:37:05.441Z,61.06
2019-01-19T12:42:22.733Z,60.41
2019-01-19T12:47:40.547Z,61.13
2019-01-19T12:52:59.168Z,59.45
2019-01-19T12:58:16.988Z,60.12
2019-01-19T13:03:34.919Z,61.21
2019-01-19T13:08:52.743Z,62.10
2019-01-19T13:14:09.810Z,61.14
2019-01-19T13:19:36.061Z,61.36
2019-01-19T13:25:28.127Z,60.56
2019-01-19T13:31:01.316Z,60.71
2019-01-19T13:36:41.076Z,59.05
2019-01-19T13:42:17.870Z,58.48
2019-01-19T13:47:54.333Z,59.69
2019-01-19T13:53:34.987Z,60.73
2019-01-19T13:59:18.154Z,59.75
2019-01-19T14:05:04.141Z,61.08
2019-01-19T14:10:33.501Z,61.46
2019-01-19T14:16:03.627Z,62.34
2019-01-19T14:21:39.267Z,63.08
2019-01-19T14:27:13.313Z,63.31
2019-01-19T14:32:56.625Z,63.62
2019-01-19T14:38:45.966Z,64.29
2019-01-19T14:50:11.361Z,64.78
2019-01-19T14:55:37.462Z,65.34
2019-01-19T15:01:09.528Z,65.31
2019-01-19T15:06:53.953Z,66.10
2019-01-19T15:12:24.067Z,67.10
2019-01-19T15:18:03.915Z,67.39
2019-01-19T15:23:39.847Z,67.24
2019-01-19T15:29:16.604Z,68.41
2019-01-19T15:34:41.671Z,69.08
2019-01-19T15:40:06.339Z,68.56
2019-01-19T15:45:41.775Z,69.35
2019-01-19T15:51:17.413Z,70.46
2019-01-19T15:56:57.076Z,70.16
2019-01-19T16:02:40.282Z,71.40
2019-01-19T16:08:15.975Z,71.12
2019-01-19T16:13:37.312Z,70.32
2019-01-19T16:19:14.013Z,71.33
2019-01-19T16:24:49.228Z,71.12
2019-01-19T16:30:26.193Z,71.05
2019-01-19T16:35:56.586Z,72.57
2019-01-19T16:41:45.502Z,72.31
2019-01-19T16:47:12.585Z,72.74
2019-01-19T16:52:33.665Z,73.12
2019-01-19T16:57:55.569Z,72.79
2019-01-19T17:03:22.025Z,72.73
2019-01-19T17:09:05.459Z,72.93
2019-01-19T17:14:58.445Z,73.16
2019-01-19T17:20:22.775Z,73.30
2019-01-19T17:25:49.729Z,73.79
2019-01-19T17:31:28.075Z,74.57
2019-01-19T17:36:52.653Z,74.46
2019-01-19T17:42:38.625Z,74.81
2019-01-19T17:48:02.685Z,73.97
2019-01-19T17:53:49.332Z,74.18
2019-01-19T17:59:25.058Z,74.79
2019-01-19T18:05:05.060Z,75.14
2019-01-19T18:10:51.001Z,75.95
2019-01-19T18:16:13.863Z,75.61
2019-01-19T18:21:49.648Z,76.07
2019-01-19T18:27:25.093Z,76.47
2019-01-19T18:32:54.196Z,75.90
2019-01-19T18:38:25.743Z,76.37
2019-01-19T18:43:59.165Z,76.14
2019-01-19T18:49:45.183Z,76.06
2019-01-19T18:55:25.070Z,76.33
2019-01-19T19:01:14.035Z,76.79
2019-01-19T19:07:03.359Z,77.09
2019-01-19T19:12:52.875Z,76.95
2019-01-19T19:18:28.170Z,77.48
2019-01-19T19:23:54.235Z,76.84
2019-01-19T19:29:26.393Z,77.60
2019-01-19T19:35:06.174Z,77.17
2019-01-19T19:40:59.114Z,77.00
2019-01-19T19:46:36.498Z,77.12
2019-01-19T19:51:56.111Z,77.29
2019-01-19T19:57:15.011Z,77.57
2019-01-19T20:02:32.235Z,77.38
2019-01-19T20:07:49.694Z,77.98
2019-01-19T20:13:07.935Z,77.82
2019-01-19T20:18:26.246Z,78.29
2019-01-19T20:23:43.701Z,78.70
2019-01-19T20:29:02.018Z,78.85
2019-01-19T20:34:20.103Z,78.60
2019-01-19T20:39:38.250Z,79.13
2019-01-19T20:44:55.478Z,78.59
2019-01-19T20:50:14.045Z,79.38
2019-01-19T20:55:32.151Z,79.25
2019-01-19T21:00:49.511Z,79.13
2019-01-19T21:06:07.339Z,79.08
2019-01-19T21:11:24.983Z,79.33
2019-01-19T21:16:42.246Z,80.00
2019-01-19T21:22:00.751Z,79.71
2019-01-19T21:27:20.471Z,79.36
2019-01-19T21:32:37.915Z,79.24
2019-01-19T21:37:55.340Z,79.30
2019-01-19T21:43:13.079Z,79.47
2019-01-19T21:48:30.409Z,79.41
2019-01-19T21:53:49.887Z,79.57
2019-01-19T21:59:09.128Z,80.68
2019-01-19T22:04:26.595Z,79.83
2019-01-19T22:09:44.470Z,79.65
2019-01-19T22:15:01.541Z,79.84
2019-01-19T22:20:18.785Z,79.86
2019-01-19T22:25:36.466Z,80.19
2019-01-19T22:30:53.480Z,80.59
2019-01-19T22:36:11.183Z,80.20
2019-01-19T22:41:29.254Z,80.03
2019-01-19T22:46:46.545Z,80.45
2019-01-19T22:52:04.223Z,80.06
2019-01-19T22:57:22.265Z,80.06
2019-01-19T23:02:39.689Z,79.77
2019-01-19T23:07:56.777Z,79.68
2019-01-19T23:13:14.437Z,79.34
2019-01-19T23:18:31.900Z,79.37
2019-01-19T23:23:50.343Z,79.33
2019-01-19T23:29:07.874Z,78.91
2019-01-19T23:34:25.849Z,78.65
2019-01-19T23:39:48.630Z,78.89
2019-01-19T23:45:06.450Z,79.04
2019-01-19T23:50:23.782Z,79.10
2019-01-19T23:55:41.396Z,78.75
